sensor_id;sensor_type;location;lat;lon;timestamp;temperature;humidity
14170;DHT22;63889;50.596;8.690;2023-02-28T00:01:01;2.40;99.90
14170;DHT22;63889;50.596;8.690;2023-02-28T00:03:26;2.30;99.90
14170;DHT22;63889;50.596;8.690;2023-02-28T00:05:52;2.20;99.90
14170;DHT22;63889;50.596;8.690;2023-02-28T00:08:17;2.20;99.90
14170;DHT22;63889;50.596;8.690;2023-02-28T00:10:43;2.30;99.90
14170;DHT22;63889;50.596;8.690;2023-02-28T00:13:08;2.10;99.90
14170;DHT22;63889;50.596;8.690;2023-02-28T00:15:34;2.10;99.90
14170;DHT22;63889;50.596;8.690;2023-02-28T00:18:00;2.10;99.90
14170;DHT22;63889;50.596;8.690;2023-02-28T00:20:25;2.10;99.90
14170;DHT22;63889;50.596;8.690;2023-02-28T00:22:53;2.20;99.90
14170;DHT22;63889;50.596;8.690;2023-02-28T00:25:23;2.20;99.90
14170;DHT22;63889;50.596;8.690;2023-02-28T00:27:49;2.20;99.90
14170;DHT22;63889;50.596;8.690;2023-02-28T00:30:18;2.10;99.90
14170;DHT22;63889;50.596;8.690;2023-02-28T00:32:44;2.40;99.90
14170;DHT22;63889;50.596;8.690;2023-02-28T00:35:11;2.20;99.90
14170;DHT22;63889;50.596;8.690;2023-02-28T00:37:37;2.30;99.90
14170;DHT22;63889;50.596;8.690;2023-02-28T00:43:24;2.30;99.90
14170;DHT22;63889;50.596;8.690;2023-02-28T00:45:50;2.40;99.90
14170;DHT22;63889;50.596;8.690;2023-02-28T00:48:15;2.30;99.90
14170;DHT22;63889;50.596;8.690;2023-02-28T00:50:41;2.40;99.90
14170;DHT22;63889;50.596;8.690;2023-02-28T00:53:06;2.40;99.90
14170;DHT22;63889;50.596;8.690;2023-02-28T00:55:32;2.40;99.90
14170;DHT22;63889;50.596;8.690;2023-02-28T00:57:57;2.40;99.90
14170;DHT22;63889;50.596;8.690;2023-02-28T01:00:23;2.30;99.90
14170;DHT22;63889;50.596;8.690;2023-02-28T01:02:48;2.40;99.90
14170;DHT22;63889;50.596;8.690;2023-02-28T01:05:14;2.40;99.90
14170;DHT22;63889;50.596;8.690;2023-02-28T01:07:40;2.50;99.90
14170;DHT22;63889;50.596;8.690;2023-02-28T01:10:05;2.50;99.90
14170;DHT22;63889;50.596;8.690;2023-02-28T01:12:31;2.40;99.90
14170;DHT22;63889;50.596;8.690;2023-02-28T01:14:57;2.10;99.90
14170;DHT22;63889;50.596;8.690;2023-02-28T01:17:23;2.00;99.90
14170;DHT22;63889;50.596;8.690;2023-02-28T01:19:48;1.80;99.90
14170;DHT22;63889;50.596;8.690;2023-02-28T01:22:14;1.90;99.90
14170;DHT22;63889;50.596;8.690;2023-02-28T01:24:39;1.80;99.90
14170;DHT22;63889;50.596;8.690;2023-02-28T01:27:05;1.70;99.90
14170;DHT22;63889;50.596;8.690;2023-02-28T01:29:30;1.70;99.90
14170;DHT22;63889;50.596;8.690;2023-02-28T01:31:56;1.60;99.90
14170;DHT22;63889;50.596;8.690;2023-02-28T01:34:22;1.70;99.90
14170;DHT22;63889;50.596;8.690;2023-02-28T01:36:47;1.70;99.90
14170;DHT22;63889;50.596;8.690;2023-02-28T01:39:13;2.00;99.90
14170;DHT22;63889;50.596;8.690;2023-02-28T01:41:39;2.00;99.90
14170;DHT22;63889;50.596;8.690;2023-02-28T01:47:09;1.90;99.90
14170;DHT22;63889;50.596;8.690;2023-02-28T01:49:35;1.60;99.90
14170;DHT22;63889;50.596;8.690;2023-02-28T01:52:01;1.70;99.90
14170;DHT22;63889;50.596;8.690;2023-02-28T01:54:29;1.70;99.90
14170;DHT22;63889;50.596;8.690;2023-02-28T01:57:06;1.70;99.90
14170;DHT22;63889;50.596;8.690;2023-02-28T01:59:35;1.60;99.90
14170;DHT22;63889;50.596;8.690;2023-02-28T02:02:03;1.50;99.90
14170;DHT22;63889;50.596;8.690;2023-02-28T02:04:37;1.60;99.90
14170;DHT22;63889;50.596;8.690;2023-02-28T02:07:04;1.70;99.90
14170;DHT22;63889;50.596;8.690;2023-02-28T02:09:30;1.80;99.90
14170;DHT22;63889;50.596;8.690;2023-02-28T02:11:56;1.70;99.90
14170;DHT22;63889;50.596;8.690;2023-02-28T02:14:26;1.70;99.90
14170;DHT22;63889;50.596;8.690;2023-02-28T02:25:56;1.60;99.90
14170;DHT22;63889;50.596;8.690;2023-02-28T02:37:33;1.20;99.90
14170;DHT22;63889;50.596;8.690;2023-02-28T02:40:16;1.00;99.90
14170;DHT22;63889;50.596;8.690;2023-02-28T02:45:44;1.10;99.90
14170;DHT22;63889;50.596;8.690;2023-02-28T02:48:15;1.00;99.90
14170;DHT22;63889;50.596;8.690;2023-02-28T02:50:55;1.30;99.90
14170;DHT22;63889;50.596;8.690;2023-02-28T02:53:27;1.40;99.90
14170;DHT22;63889;50.596;8.690;2023-02-28T02:55:53;1.50;99.90
14170;DHT22;63889;50.596;8.690;2023-02-28T02:58:24;1.20;99.90
14170;DHT22;63889;50.596;8.690;2023-02-28T03:00:54;1.10;99.90
14170;DHT22;63889;50.596;8.690;2023-02-28T03:03:22;1.10;99.90
14170;DHT22;63889;50.596;8.690;2023-02-28T03:05:54;1.10;99.90
14170;DHT22;63889;50.596;8.690;2023-02-28T03:08:20;1.20;99.90
14170;DHT22;63889;50.596;8.690;2023-02-28T03:10:49;1.10;99.90
14170;DHT22;63889;50.596;8.690;2023-02-28T03:13:34;1.10;99.90
14170;DHT22;63889;50.596;8.690;2023-02-28T03:19:30;1.10;99.90
14170;DHT22;63889;50.596;8.690;2023-02-28T03:22:19;1.10;99.90
14170;DHT22;63889;50.596;8.690;2023-02-28T03:27:25;1.20;99.90
14170;DHT22;63889;50.596;8.690;2023-02-28T03:30:04;1.10;99.90
14170;DHT22;63889;50.596;8.690;2023-02-28T03:32:58;1.20;99.90
14170;DHT22;63889;50.596;8.690;2023-02-28T03:35:32;1.30;99.90
14170;DHT22;63889;50.596;8.690;2023-02-28T03:38:35;1.30;99.90
14170;DHT22;63889;50.596;8.690;2023-02-28T03:41:19;1.30;99.90
14170;DHT22;63889;50.596;8.690;2023-02-28T03:44:00;1.30;99.90
14170;DHT22;63889;50.596;8.690;2023-02-28T03:46:32;1.50;99.90
14170;DHT22;63889;50.596;8.690;2023-02-28T03:49:09;1.50;99.90
14170;DHT22;63889;50.596;8.690;2023-02-28T03:51:38;1.50;99.90
14170;DHT22;63889;50.596;8.690;2023-02-28T03:54:09;1.40;99.90
14170;DHT22;63889;50.596;8.690;2023-02-28T03:57:00;1.30;99.90
14170;DHT22;63889;50.596;8.690;2023-02-28T03:59:37;1.30;99.90
14170;DHT22;63889;50.596;8.690;2023-02-28T04:02:04;1.30;99.90
14170;DHT22;63889;50.596;8.690;2023-02-28T04:04:30;1.40;99.90
14170;DHT22;63889;50.596;8.690;2023-02-28T04:07:07;1.20;99.90
14170;DHT22;63889;50.596;8.690;2023-02-28T04:09:34;1.30;99.90
14170;DHT22;63889;50.596;8.690;2023-02-28T04:11:59;1.40;99.90
14170;DHT22;63889;50.596;8.690;2023-02-28T04:14:25;1.30;99.90
14170;DHT22;63889;50.596;8.690;2023-02-28T04:16:51;1.40;99.90
14170;DHT22;63889;50.596;8.690;2023-02-28T04:19:18;1.30;99.90
14170;DHT22;63889;50.596;8.690;2023-02-28T04:21:47;1.30;99.90
14170;DHT22;63889;50.596;8.690;2023-02-28T04:24:15;0.90;99.90
14170;DHT22;63889;50.596;8.690;2023-02-28T04:26:43;1.00;99.90
14170;DHT22;63889;50.596;8.690;2023-02-28T04:29:11;1.10;99.90
14170;DHT22;63889;50.596;8.690;2023-02-28T04:31:37;1.20;99.90
14170;DHT22;63889;50.596;8.690;2023-02-28T04:34:03;1.20;99.90
14170;DHT22;63889;50.596;8.690;2023-02-28T04:36:29;1.30;99.90
14170;DHT22;63889;50.596;8.690;2023-02-28T04:38:54;1.20;99.90
14170;DHT22;63889;50.596;8.690;2023-02-28T04:41:21;1.20;99.90
14170;DHT22;63889;50.596;8.690;2023-02-28T04:43:48;1.00;99.90
14170;DHT22;63889;50.596;8.690;2023-02-28T04:46:13;1.00;99.90
14170;DHT22;63889;50.596;8.690;2023-02-28T04:48:39;1.10;99.90
14170;DHT22;63889;50.596;8.690;2023-02-28T04:51:08;1.00;99.90
14170;DHT22;63889;50.596;8.690;2023-02-28T04:53:35;1.00;99.90
14170;DHT22;63889;50.596;8.690;2023-02-28T04:56:01;0.90;99.90
14170;DHT22;63889;50.596;8.690;2023-02-28T04:58:26;0.80;99.90
14170;DHT22;63889;50.596;8.690;2023-02-28T05:00:53;0.60;99.90
14170;DHT22;63889;50.596;8.690;2023-02-28T05:03:20;0.60;99.90
14170;DHT22;63889;50.596;8.690;2023-02-28T05:05:47;0.60;99.90
14170;DHT22;63889;50.596;8.690;2023-02-28T05:08:13;0.80;99.90
14170;DHT22;63889;50.596;8.690;2023-02-28T05:10:39;0.60;99.90
14170;DHT22;63889;50.596;8.690;2023-02-28T05:13:04;0.50;99.90
14170;DHT22;63889;50.596;8.690;2023-02-28T05:15:30;0.40;99.90
14170;DHT22;63889;50.596;8.690;2023-02-28T05:17:56;0.40;99.90
14170;DHT22;63889;50.596;8.690;2023-02-28T05:20:21;0.50;99.90
14170;DHT22;63889;50.596;8.690;2023-02-28T05:22:47;0.40;99.90
14170;DHT22;63889;50.596;8.690;2023-02-28T05:25:17;0.40;99.90
14170;DHT22;63889;50.596;8.690;2023-02-28T05:27:43;0.50;99.90
14170;DHT22;63889;50.596;8.690;2023-02-28T05:30:09;0.60;99.90
14170;DHT22;63889;50.596;8.690;2023-02-28T05:32:37;0.60;99.90
14170;DHT22;63889;50.596;8.690;2023-02-28T05:35:03;0.60;99.90
14170;DHT22;63889;50.596;8.690;2023-02-28T05:37:28;0.80;99.90
14170;DHT22;63889;50.596;8.690;2023-02-28T05:39:54;0.80;99.90
14170;DHT22;63889;50.596;8.690;2023-02-28T05:42:19;0.80;99.90
14170;DHT22;63889;50.596;8.690;2023-02-28T05:44:45;0.90;99.90
14170;DHT22;63889;50.596;8.690;2023-02-28T05:47:11;0.90;99.90
14170;DHT22;63889;50.596;8.690;2023-02-28T05:49:41;1.10;99.90
14170;DHT22;63889;50.596;8.690;2023-02-28T05:52:06;1.10;99.90
14170;DHT22;63889;50.596;8.690;2023-02-28T05:54:32;1.20;99.90
14170;DHT22;63889;50.596;8.690;2023-02-28T05:56:57;1.20;99.90
14170;DHT22;63889;50.596;8.690;2023-02-28T05:59:23;1.20;99.90
14170;DHT22;63889;50.596;8.690;2023-02-28T06:01:48;1.20;99.90
14170;DHT22;63889;50.596;8.690;2023-02-28T06:04:18;1.10;99.90
14170;DHT22;63889;50.596;8.690;2023-02-28T06:06:47;1.10;99.90
14170;DHT22;63889;50.596;8.690;2023-02-28T06:09:14;1.30;99.90
14170;DHT22;63889;50.596;8.690;2023-02-28T06:11:40;1.40;99.90
14170;DHT22;63889;50.596;8.690;2023-02-28T06:14:06;1.30;99.90
14170;DHT22;63889;50.596;8.690;2023-02-28T06:16:33;1.30;99.90
14170;DHT22;63889;50.596;8.690;2023-02-28T06:19:01;1.40;99.90
14170;DHT22;63889;50.596;8.690;2023-02-28T06:21:27;1.50;99.90
14170;DHT22;63889;50.596;8.690;2023-02-28T06:23:53;1.40;99.90
14170;DHT22;63889;50.596;8.690;2023-02-28T06:26:19;1.30;99.90
14170;DHT22;63889;50.596;8.690;2023-02-28T06:28:45;1.40;99.90
14170;DHT22;63889;50.596;8.690;2023-02-28T06:31:13;1.30;99.90
14170;DHT22;63889;50.596;8.690;2023-02-28T06:33:40;1.20;99.90
14170;DHT22;63889;50.596;8.690;2023-02-28T06:36:07;1.20;99.90
14170;DHT22;63889;50.596;8.690;2023-02-28T06:38:33;1.20;99.90
14170;DHT22;63889;50.596;8.690;2023-02-28T06:41:00;1.30;99.90
14170;DHT22;63889;50.596;8.690;2023-02-28T06:43:28;1.30;99.90
14170;DHT22;63889;50.596;8.690;2023-02-28T06:45:55;1.40;99.90
14170;DHT22;63889;50.596;8.690;2023-02-28T06:48:22;1.50;99.90
14170;DHT22;63889;50.596;8.690;2023-02-28T06:50:47;1.50;99.90
14170;DHT22;63889;50.596;8.690;2023-02-28T06:53:13;1.50;99.90
14170;DHT22;63889;50.596;8.690;2023-02-28T06:55:39;1.50;99.90
14170;DHT22;63889;50.596;8.690;2023-02-28T06:58:05;1.60;99.90
14170;DHT22;63889;50.596;8.690;2023-02-28T07:00:41;1.40;99.90
14170;DHT22;63889;50.596;8.690;2023-02-28T07:03:07;1.50;99.90
14170;DHT22;63889;50.596;8.690;2023-02-28T07:05:35;1.60;99.90
14170;DHT22;63889;50.596;8.690;2023-02-28T07:08:00;1.70;99.90
14170;DHT22;63889;50.596;8.690;2023-02-28T07:10:26;1.80;99.90
14170;DHT22;63889;50.596;8.690;2023-02-28T07:12:52;1.80;99.90
14170;DHT22;63889;50.596;8.690;2023-02-28T07:15:17;1.90;99.90
14170;DHT22;63889;50.596;8.690;2023-02-28T07:17:43;1.90;99.90
14170;DHT22;63889;50.596;8.690;2023-02-28T07:20:09;1.90;99.90
14170;DHT22;63889;50.596;8.690;2023-02-28T07:22:34;1.90;99.90
14170;DHT22;63889;50.596;8.690;2023-02-28T07:25:00;1.90;99.90
14170;DHT22;63889;50.596;8.690;2023-02-28T07:27:25;1.90;99.90
14170;DHT22;63889;50.596;8.690;2023-02-28T07:29:51;1.90;99.90
14170;DHT22;63889;50.596;8.690;2023-02-28T07:32:18;2.00;99.90
14170;DHT22;63889;50.596;8.690;2023-02-28T07:34:44;2.00;99.90
14170;DHT22;63889;50.596;8.690;2023-02-28T07:37:10;2.10;99.90
14170;DHT22;63889;50.596;8.690;2023-02-28T07:39:35;2.20;99.90
14170;DHT22;63889;50.596;8.690;2023-02-28T07:42:04;2.30;99.90
14170;DHT22;63889;50.596;8.690;2023-02-28T07:44:42;2.30;99.90
14170;DHT22;63889;50.596;8.690;2023-02-28T07:47:09;2.10;99.90
14170;DHT22;63889;50.596;8.690;2023-02-28T07:49:36;2.20;99.90
14170;DHT22;63889;50.596;8.690;2023-02-28T07:52:03;2.10;99.90
14170;DHT22;63889;50.596;8.690;2023-02-28T07:54:29;2.10;99.90
14170;DHT22;63889;50.596;8.690;2023-02-28T07:56:54;2.20;99.90
14170;DHT22;63889;50.596;8.690;2023-02-28T07:59:20;2.30;99.90
14170;DHT22;63889;50.596;8.690;2023-02-28T08:01:45;2.30;99.90
14170;DHT22;63889;50.596;8.690;2023-02-28T08:04:11;2.40;99.90
14170;DHT22;63889;50.596;8.690;2023-02-28T08:06:36;2.60;99.90
14170;DHT22;63889;50.596;8.690;2023-02-28T08:09:02;2.50;99.90
14170;DHT22;63889;50.596;8.690;2023-02-28T08:11:28;2.50;99.90
14170;DHT22;63889;50.596;8.690;2023-02-28T08:13:54;2.60;99.90
14170;DHT22;63889;50.596;8.690;2023-02-28T08:16:20;2.70;99.90
14170;DHT22;63889;50.596;8.690;2023-02-28T08:18:51;2.70;99.90
14170;DHT22;63889;50.596;8.690;2023-02-28T08:21:18;2.70;99.90
14170;DHT22;63889;50.596;8.690;2023-02-28T08:23:50;2.80;99.90
14170;DHT22;63889;50.596;8.690;2023-02-28T08:26:17;2.80;99.90
14170;DHT22;63889;50.596;8.690;2023-02-28T08:28:42;2.90;99.90
14170;DHT22;63889;50.596;8.690;2023-02-28T08:31:10;3.00;99.90
14170;DHT22;63889;50.596;8.690;2023-02-28T08:33:36;3.10;99.90
14170;DHT22;63889;50.596;8.690;2023-02-28T08:36:02;3.20;99.90
14170;DHT22;63889;50.596;8.690;2023-02-28T08:38:28;3.20;99.90
14170;DHT22;63889;50.596;8.690;2023-02-28T08:41:07;3.20;99.90
14170;DHT22;63889;50.596;8.690;2023-02-28T08:43:35;3.20;99.90
14170;DHT22;63889;50.596;8.690;2023-02-28T08:46:00;3.30;99.90
14170;DHT22;63889;50.596;8.690;2023-02-28T08:48:27;3.40;99.90
14170;DHT22;63889;50.596;8.690;2023-02-28T08:51:04;3.40;99.90
14170;DHT22;63889;50.596;8.690;2023-02-28T08:53:30;3.40;99.90
14170;DHT22;63889;50.596;8.690;2023-02-28T08:56:04;3.40;99.90
14170;DHT22;63889;50.596;8.690;2023-02-28T08:58:30;3.50;99.90
14170;DHT22;63889;50.596;8.690;2023-02-28T09:00:56;3.50;99.90
14170;DHT22;63889;50.596;8.690;2023-02-28T09:03:22;3.60;99.90
14170;DHT22;63889;50.596;8.690;2023-02-28T09:05:59;3.60;99.90
14170;DHT22;63889;50.596;8.690;2023-02-28T09:08:26;3.70;99.90
14170;DHT22;63889;50.596;8.690;2023-02-28T09:10:52;3.70;99.90
14170;DHT22;63889;50.596;8.690;2023-02-28T09:13:18;3.90;99.90
14170;DHT22;63889;50.596;8.690;2023-02-28T09:15:44;4.00;99.90
14170;DHT22;63889;50.596;8.690;2023-02-28T09:18:10;3.90;99.90
14170;DHT22;63889;50.596;8.690;2023-02-28T09:20:40;3.90;99.90
14170;DHT22;63889;50.596;8.690;2023-02-28T09:23:07;4.00;99.90
14170;DHT22;63889;50.596;8.690;2023-02-28T09:25:34;4.10;99.90
14170;DHT22;63889;50.596;8.690;2023-02-28T09:28:00;4.20;99.90
14170;DHT22;63889;50.596;8.690;2023-02-28T09:30:26;4.10;99.90
14170;DHT22;63889;50.596;8.690;2023-02-28T09:32:51;4.20;99.90
14170;DHT22;63889;50.596;8.690;2023-02-28T09:35:20;4.40;99.90
14170;DHT22;63889;50.596;8.690;2023-02-28T09:37:50;4.50;99.90
14170;DHT22;63889;50.596;8.690;2023-02-28T09:40:20;4.50;99.90
14170;DHT22;63889;50.596;8.690;2023-02-28T09:42:49;4.30;98.90
14170;DHT22;63889;50.596;8.690;2023-02-28T09:45:23;4.30;99.40
14170;DHT22;63889;50.596;8.690;2023-02-28T09:47:52;4.30;99.50
14170;DHT22;63889;50.596;8.690;2023-02-28T09:50:30;4.50;99.10
14170;DHT22;63889;50.596;8.690;2023-02-28T09:52:58;4.50;98.70
14170;DHT22;63889;50.596;8.690;2023-02-28T09:55:36;4.50;98.80
14170;DHT22;63889;50.596;8.690;2023-02-28T09:58:02;4.60;98.30
14170;DHT22;63889;50.596;8.690;2023-02-28T10:00:39;4.60;98.60
14170;DHT22;63889;50.596;8.690;2023-02-28T10:09:03;4.30;98.40
14170;DHT22;63889;50.596;8.690;2023-02-28T10:11:32;4.50;98.90
14170;DHT22;63889;50.596;8.690;2023-02-28T10:14:11;4.60;98.00
14170;DHT22;63889;50.596;8.690;2023-02-28T10:19:18;4.70;98.30
14170;DHT22;63889;50.596;8.690;2023-02-28T10:22:05;4.40;97.90
14170;DHT22;63889;50.596;8.690;2023-02-28T10:24:44;4.60;98.10
14170;DHT22;63889;50.596;8.690;2023-02-28T10:27:18;4.90;97.90
14170;DHT22;63889;50.596;8.690;2023-02-28T10:29:49;4.90;97.60
14170;DHT22;63889;50.596;8.690;2023-02-28T10:32:20;5.10;97.80
14170;DHT22;63889;50.596;8.690;2023-02-28T10:37:41;5.20;97.60
14170;DHT22;63889;50.596;8.690;2023-02-28T10:53:28;5.20;96.40
14170;DHT22;63889;50.596;8.690;2023-02-28T11:01:25;4.90;98.30
14170;DHT22;63889;50.596;8.690;2023-02-28T11:03:52;5.00;97.90
14170;DHT22;63889;50.596;8.690;2023-02-28T11:06:26;5.10;97.40
14170;DHT22;63889;50.596;8.690;2023-02-28T11:08:56;5.20;97.70
14170;DHT22;63889;50.596;8.690;2023-02-28T11:11:26;5.00;96.70
14170;DHT22;63889;50.596;8.690;2023-02-28T11:13:55;4.80;95.90
14170;DHT22;63889;50.596;8.690;2023-02-28T11:16:34;4.80;96.80
14170;DHT22;63889;50.596;8.690;2023-02-28T11:19:00;4.60;97.10
14170;DHT22;63889;50.596;8.690;2023-02-28T11:21:30;4.50;97.30
14170;DHT22;63889;50.596;8.690;2023-02-28T11:24:04;4.40;97.70
14170;DHT22;63889;50.596;8.690;2023-02-28T11:26:45;4.40;98.00
14170;DHT22;63889;50.596;8.690;2023-02-28T11:29:20;4.40;98.10
14170;DHT22;63889;50.596;8.690;2023-02-28T11:32:12;4.40;98.40
14170;DHT22;63889;50.596;8.690;2023-02-28T11:34:39;4.20;98.40
14170;DHT22;63889;50.596;8.690;2023-02-28T11:37:13;4.20;98.20
14170;DHT22;63889;50.596;8.690;2023-02-28T11:39:39;4.20;98.50
14170;DHT22;63889;50.596;8.690;2023-02-28T11:53:04;4.90;98.60
14170;DHT22;63889;50.596;8.690;2023-02-28T11:55:36;5.40;97.40
14170;DHT22;63889;50.596;8.690;2023-02-28T12:06:21;6.10;97.20
14170;DHT22;63889;50.596;8.690;2023-02-28T12:11:31;6.00;98.30
14170;DHT22;63889;50.596;8.690;2023-02-28T12:16:48;6.20;97.10
14170;DHT22;63889;50.596;8.690;2023-02-28T12:28:32;6.30;98.60
14170;DHT22;63889;50.596;8.690;2023-02-28T12:31:03;6.30;97.80
14170;DHT22;63889;50.596;8.690;2023-02-28T12:33:38;6.50;97.70
14170;DHT22;63889;50.596;8.690;2023-02-28T12:36:10;6.50;97.00
14170;DHT22;63889;50.596;8.690;2023-02-28T12:38:44;6.40;97.40
14170;DHT22;63889;50.596;8.690;2023-02-28T12:41:12;6.30;97.30
14170;DHT22;63889;50.596;8.690;2023-02-28T12:43:46;6.50;99.20
14170;DHT22;63889;50.596;8.690;2023-02-28T12:46:19;6.70;98.80
14170;DHT22;63889;50.596;8.690;2023-02-28T12:48:50;6.70;96.20
14170;DHT22;63889;50.596;8.690;2023-02-28T12:51:17;6.70;96.60
14170;DHT22;63889;50.596;8.690;2023-02-28T12:53:54;6.70;95.90
14170;DHT22;63889;50.596;8.690;2023-02-28T12:56:37;6.70;97.30
14170;DHT22;63889;50.596;8.690;2023-02-28T12:59:14;6.50;95.50
14170;DHT22;63889;50.596;8.690;2023-02-28T13:07:47;6.30;95.70
14170;DHT22;63889;50.596;8.690;2023-02-28T13:10:16;6.40;95.30
14170;DHT22;63889;50.596;8.690;2023-02-28T13:12:53;6.50;94.90
14170;DHT22;63889;50.596;8.690;2023-02-28T13:15:24;6.80;95.50
14170;DHT22;63889;50.596;8.690;2023-02-28T13:17:52;6.80;94.40
14170;DHT22;63889;50.596;8.690;2023-02-28T13:20:35;6.70;94.50
14170;DHT22;63889;50.596;8.690;2023-02-28T13:23:01;6.80;94.70
14170;DHT22;63889;50.596;8.690;2023-02-28T13:28:00;7.00;94.00
14170;DHT22;63889;50.596;8.690;2023-02-28T13:33:30;7.30;94.20
14170;DHT22;63889;50.596;8.690;2023-02-28T13:44:22;7.40;94.00
14170;DHT22;63889;50.596;8.690;2023-02-28T13:52:02;7.60;93.40
14170;DHT22;63889;50.596;8.690;2023-02-28T13:54:59;7.50;92.80
14170;DHT22;63889;50.596;8.690;2023-02-28T14:01:11;7.40;93.60
14170;DHT22;63889;50.596;8.690;2023-02-28T14:04:06;7.50;93.20
14170;DHT22;63889;50.596;8.690;2023-02-28T14:06:36;7.50;93.40
14170;DHT22;63889;50.596;8.690;2023-02-28T14:11:35;7.30;92.90
14170;DHT22;63889;50.596;8.690;2023-02-28T14:14:02;7.40;93.40
14170;DHT22;63889;50.596;8.690;2023-02-28T14:16:40;7.80;92.80
14170;DHT22;63889;50.596;8.690;2023-02-28T14:19:14;7.80;92.00
14170;DHT22;63889;50.596;8.690;2023-02-28T14:38:06;8.10;91.80
14170;DHT22;63889;50.596;8.690;2023-02-28T14:40:38;7.90;91.80
14170;DHT22;63889;50.596;8.690;2023-02-28T14:43:16;8.00;91.50
14170;DHT22;63889;50.596;8.690;2023-02-28T14:45:43;8.10;91.50
14170;DHT22;63889;50.596;8.690;2023-02-28T14:48:10;8.00;92.10
14170;DHT22;63889;50.596;8.690;2023-02-28T14:50:36;7.80;91.60
14170;DHT22;63889;50.596;8.690;2023-02-28T14:53:03;7.60;92.10
14170;DHT22;63889;50.596;8.690;2023-02-28T14:55:34;7.70;92.70
14170;DHT22;63889;50.596;8.690;2023-02-28T14:58:02;7.50;91.90
14170;DHT22;63889;50.596;8.690;2023-02-28T15:00:34;7.60;92.30
14170;DHT22;63889;50.596;8.690;2023-02-28T15:03:11;7.40;92.10
14170;DHT22;63889;50.596;8.690;2023-02-28T15:05:42;7.20;92.00
14170;DHT22;63889;50.596;8.690;2023-02-28T15:08:16;7.10;92.60
14170;DHT22;63889;50.596;8.690;2023-02-28T15:10:51;7.00;93.00
14170;DHT22;63889;50.596;8.690;2023-02-28T15:13:19;7.00;93.10
14170;DHT22;63889;50.596;8.690;2023-02-28T15:21:31;6.70;93.70
14170;DHT22;63889;50.596;8.690;2023-02-28T15:24:13;6.40;93.90
14170;DHT22;63889;50.596;8.690;2023-02-28T15:26:52;6.40;94.10
14170;DHT22;63889;50.596;8.690;2023-02-28T15:35:51;6.10;94.60
14170;DHT22;63889;50.596;8.690;2023-02-28T15:38:26;6.10;94.80
14170;DHT22;63889;50.596;8.690;2023-02-28T15:40:54;6.00;95.00
14170;DHT22;63889;50.596;8.690;2023-02-28T15:43:26;6.00;95.00
14170;DHT22;63889;50.596;8.690;2023-02-28T15:46:13;6.00;95.20
14170;DHT22;63889;50.596;8.690;2023-02-28T15:48:54;6.00;95.00
14170;DHT22;63889;50.596;8.690;2023-02-28T15:51:29;6.00;95.10
14170;DHT22;63889;50.596;8.690;2023-02-28T15:54:06;6.00;95.40
14170;DHT22;63889;50.596;8.690;2023-02-28T15:56:43;6.00;95.30
14170;DHT22;63889;50.596;8.690;2023-02-28T15:59:16;6.00;95.20
14170;DHT22;63889;50.596;8.690;2023-02-28T16:01:43;5.80;95.60
14170;DHT22;63889;50.596;8.690;2023-02-28T16:04:19;5.90;95.90
14170;DHT22;63889;50.596;8.690;2023-02-28T16:07:11;5.70;96.20
14170;DHT22;63889;50.596;8.690;2023-02-28T16:09:32;5.70;96.30
14170;DHT22;63889;50.596;8.690;2023-02-28T16:12:02;5.70;96.40
14170;DHT22;63889;50.596;8.690;2023-02-28T16:14:29;5.60;96.20
14170;DHT22;63889;50.596;8.690;2023-02-28T16:17:04;5.70;97.00
14170;DHT22;63889;50.596;8.690;2023-02-28T16:19:30;5.80;96.70
14170;DHT22;63889;50.596;8.690;2023-02-28T16:21:56;5.80;96.80
14170;DHT22;63889;50.596;8.690;2023-02-28T16:24:22;5.90;97.20
14170;DHT22;63889;50.596;8.690;2023-02-28T16:26:48;5.90;96.50
14170;DHT22;63889;50.596;8.690;2023-02-28T16:29:31;5.80;96.00
14170;DHT22;63889;50.596;8.690;2023-02-28T16:31:57;5.50;96.10
14170;DHT22;63889;50.596;8.690;2023-02-28T16:34:24;5.40;96.70
14170;DHT22;63889;50.596;8.690;2023-02-28T16:36:50;5.40;96.60
14170;DHT22;63889;50.596;8.690;2023-02-28T16:39:16;5.50;96.30
14170;DHT22;63889;50.596;8.690;2023-02-28T16:41:43;5.50;96.40
14170;DHT22;63889;50.596;8.690;2023-02-28T16:44:33;5.40;96.90
14170;DHT22;63889;50.596;8.690;2023-02-28T16:46:57;5.30;96.60
14170;DHT22;63889;50.596;8.690;2023-02-28T16:49:24;5.20;97.10
14170;DHT22;63889;50.596;8.690;2023-02-28T16:51:50;5.20;97.00
14170;DHT22;63889;50.596;8.690;2023-02-28T16:54:15;5.00;97.20
14170;DHT22;63889;50.596;8.690;2023-02-28T16:56:44;5.10;98.00
14170;DHT22;63889;50.596;8.690;2023-02-28T16:59:11;5.10;97.70
14170;DHT22;63889;50.596;8.690;2023-02-28T17:01:36;5.20;98.10
14170;DHT22;63889;50.596;8.690;2023-02-28T17:04:02;5.30;98.00
14170;DHT22;63889;50.596;8.690;2023-02-28T17:06:29;5.20;97.70
14170;DHT22;63889;50.596;8.690;2023-02-28T17:08:55;5.10;98.00
14170;DHT22;63889;50.596;8.690;2023-02-28T17:11:21;5.20;98.30
14170;DHT22;63889;50.596;8.690;2023-02-28T17:13:47;5.30;98.30
14170;DHT22;63889;50.596;8.690;2023-02-28T17:18:49;5.50;99.00
14170;DHT22;63889;50.596;8.690;2023-02-28T17:21:16;5.50;98.50
14170;DHT22;63889;50.596;8.690;2023-02-28T17:23:42;5.50;98.60
14170;DHT22;63889;50.596;8.690;2023-02-28T17:26:12;5.60;98.80
14170;DHT22;63889;50.596;8.690;2023-02-28T17:28:38;5.50;98.80
14170;DHT22;63889;50.596;8.690;2023-02-28T17:31:04;5.40;98.40
14170;DHT22;63889;50.596;8.690;2023-02-28T17:33:29;5.30;98.20
14170;DHT22;63889;50.596;8.690;2023-02-28T17:35:55;5.30;99.20
14170;DHT22;63889;50.596;8.690;2023-02-28T17:38:21;5.20;98.30
14170;DHT22;63889;50.596;8.690;2023-02-28T17:40:48;5.10;99.10
14170;DHT22;63889;50.596;8.690;2023-02-28T17:43:13;5.10;99.00
14170;DHT22;63889;50.596;8.690;2023-02-28T17:45:40;5.10;99.00
14170;DHT22;63889;50.596;8.690;2023-02-28T17:48:08;5.00;99.90
14170;DHT22;63889;50.596;8.690;2023-02-28T17:50:34;4.90;99.90
14170;DHT22;63889;50.596;8.690;2023-02-28T17:52:59;4.80;99.90
14170;DHT22;63889;50.596;8.690;2023-02-28T17:55:25;4.70;99.90
14170;DHT22;63889;50.596;8.690;2023-02-28T17:57:51;4.80;99.90
14170;DHT22;63889;50.596;8.690;2023-02-28T18:00:17;5.00;99.90
14170;DHT22;63889;50.596;8.690;2023-02-28T18:02:43;4.90;99.80
14170;DHT22;63889;50.596;8.690;2023-02-28T18:05:09;4.90;99.90
14170;DHT22;63889;50.596;8.690;2023-02-28T18:07:39;4.80;99.90
14170;DHT22;63889;50.596;8.690;2023-02-28T18:10:07;4.70;99.90
14170;DHT22;63889;50.596;8.690;2023-02-28T18:12:36;4.60;99.90
14170;DHT22;63889;50.596;8.690;2023-02-28T18:15:01;4.60;99.90
14170;DHT22;63889;50.596;8.690;2023-02-28T18:17:27;4.40;99.90
14170;DHT22;63889;50.596;8.690;2023-02-28T18:19:52;4.40;99.90
14170;DHT22;63889;50.596;8.690;2023-02-28T18:22:18;4.30;99.90
14170;DHT22;63889;50.596;8.690;2023-02-28T18:24:43;4.20;99.90
14170;DHT22;63889;50.596;8.690;2023-02-28T18:27:09;4.30;99.90
14170;DHT22;63889;50.596;8.690;2023-02-28T18:29:35;4.20;99.90
14170;DHT22;63889;50.596;8.690;2023-02-28T18:32:02;4.20;99.90
14170;DHT22;63889;50.596;8.690;2023-02-28T18:34:28;4.10;99.90
14170;DHT22;63889;50.596;8.690;2023-02-28T18:36:55;4.00;99.90